Terminal Aerodrome Forecast
Issued by NWS

Home | Current Version | Previous Version | Text Only | Print | Product List | Glossary On
Versions: 1 2 3 4 5 6 7 8 9 10 11 12 13 14 15 16 17 18 19 20 21 22 23 24
000
FTUS46 KEKA 190605 AAA
TAFUKI
TAF AMD
KUKI 190605Z 1906/2006 17008G16KT 6SM -RA BKN025 OVC035
      WS020/19025KT
     FM190900 19008G20KT 3SM RA BKN015 OVC030
     FM191400 16003KT 6SM -SHRA BKN030
     FM191800 13003KT P6SM SCT035 OVC050
     FM200000 00000KT P6SM SCT050 OVC100=

USA.gov is the U.S. government's official web portal to all federal, state and local government web resources and services.